Terminal Aerodrome Forecast
Issued by NWS

Home | Current Version | Previous Version | Text Only | Print | Product List | Glossary Off
Versions: 1 2 3 4 5 6 7 8 9 10 11 12 13 14 15 16 17 18 19

335
FTUS43 KBIS 211727 AAB
TAFMOT
TAF AMD
KMOT 211727Z 2117/2218 13022G32KT P6SM SCT040
     FM220900 15013KT P6SM BKN020
     FM221200 16011KT P6SM VCTS BKN020CB=

USA.gov is the U.S. government's official web portal to all federal, state and local government web resources and services.